Latest Weather Observations for Burketown Airport

IDQ60801

Issued at 7:22 am EST Wednesday 23 October 2019 (issued every 10 minutes, with the page automatically refreshed every 10 minutes)

About weather observations | Map of weather stations | Latest weather observations for QLD | Other Formats
Station Details ID: 029077 Name: BURKETOWN AIRPORT Lat: -17.75 Lon: 139.54 Height: 5.7 m
Data from the previous 72 hours. | See also: Recent months at Burketown Airport
Date/Time
EST
Temp
°C
App
Temp
°C
Dew
Point
°C
Rel
Hum
%
Delta-T
°C
Wind Press
QNH
hPa
Press
MSL
hPa
Rain since
9am
mm
Dir  Spd
km/h
Gust
km/h
Spd
kts
Gust
kts
23/07:00am 28.3 27.1 20.8 63 5.0 NE 28 39 15 21 1014.0 1013.9 0.0
23/06:30am 27.6 27.1 19.9 63 5.0 NE 22 30 12 16 1013.7 1013.6 0.0
23/06:00am 27.5 26.7 19.3 61 5.3 ENE 22 30 12 16 1013.3 1013.2 0.0
23/05:30am 26.7 27.7 21.0 71 3.8 ENE 17 24 9 13 1012.7 1012.6 0.0
23/05:00am 25.3 25.9 17.7 62 4.8 NE 11 15 6 8 1012.2 1012.1 0.0
23/04:30am 24.0 24.9 16.0 61 4.9 E 6 7 3 4 1012.0 1011.9 0.0
23/04:00am 24.5 25.0 16.5 61 4.9 ENE 9 11 5 6 1011.7 1011.6 0.0
23/03:30am 25.3 25.6 17.0 60 5.1 E 11 24 6 13 1011.4 1011.3 0.0
23/03:00am 23.8 23.9 15.6 60 4.9 WSW 9 11 5 6 1010.6 1010.5 0.0
23/02:30am 24.0 24.2 15.8 60 5.0 WSW 9 11 5 6 1010.7 1010.6 0.0
23/02:00am 24.3 25.5 15.0 56 5.6 NNE 2 6 1 3 1011.1 1011.0 0.0
23/01:30am 24.7 25.0 15.1 55 5.8 NNE 7 9 4 5 1011.4 1011.3 0.0
23/01:00am 25.2 25.6 15.2 54 6.0 W 7 9 4 5 1011.4 1011.3 0.0
23/12:30am 25.2 24.6 14.6 51 6.3 W 11 11 6 6 1011.4 1011.3 0.0
23/12:00am 25.4 24.5 14.8 52 6.3 W 13 15 7 8 1011.7 1011.6 0.0
 
Date/Time
EST
Temp
°C
App
Temp
°C
Dew
Point
°C
Rel
Hum
%
Delta-T
°C
Wind Press
QNH
hPa
Press
MSL
hPa
Rain since
9am
mm
Dir  Spd
km/h
Gust
km/h
Spd
kts
Gust
kts
22/11:30pm 25.7 25.2 14.8 51 6.5 W 11 13 6 7 1011.9 1011.8 0.0
22/11:00pm 25.6 24.9 14.4 50 6.7 WNW 11 11 6 6 1012.1 1012.0 0.0
22/10:30pm 26.0 25.4 14.5 49 6.9 NW 11 11 6 6 1012.1 1012.0 0.0
22/10:00pm 27.2 26.8 15.2 47 7.3 WNW 11 15 6 8 1012.1 1012.0 0.0
22/09:30pm 27.3 26.7 15.7 49 7.1 W 13 15 7 8 1011.9 1011.8 0.0
22/09:00pm 27.5 27.3 15.8 48 7.2 WNW 11 15 6 8 1011.8 1011.7 0.0
22/08:30pm 28.4 28.3 16.0 47 7.7 NW 11 13 6 7 1011.8 1011.7 0.0
22/08:00pm 29.3 28.6 15.4 42 8.5 NNW 13 15 7 8 1011.6 1011.5 0.0
22/07:30pm 30.0 29.4 15.7 42 8.8 NNW 13 17 7 9 1011.5 1011.4 0.0
22/07:00pm 30.7 29.9 15.2 39 9.5 NNW 13 17 7 9 1011.1 1011.0 0.0
22/06:30pm 31.6 30.3 14.7 36 10.3 N 15 19 8 10 1010.8 1010.7 0.0
22/06:00pm 32.5 30.2 14.1 32 11.2 N 19 24 10 13 1010.5 1010.4 0.0
22/05:30pm 32.7 31.1 13.8 31 11.5 NNE 15 20 8 11 1010.4 1010.3 0.0
22/05:00pm 33.8 32.5 14.8 32 11.8 N 15 22 8 12 1010.3 1010.2 0.0
22/04:30pm 34.2 33.2 14.7 31 12.1 NNE 13 24 7 13 1010.3 1010.2 0.0
22/04:00pm 33.6 31.9 14.6 31 11.7 NNE 17 26 9 14 1010.4 1010.3 0.0
22/03:30pm 33.6 33.0 15.6 34 11.2 N 13 24 7 13 1010.9 1010.8 0.0
22/03:00pm 34.1 34.0 16.9 36 11.0 NNE 13 22 7 12 1011.3 1011.2 0.0
22/02:30pm 32.8 31.8 16.6 38 10.2 NNE 17 28 9 15 1011.6 1011.5 0.0
22/02:00pm 32.7 31.6 17.3 39 9.8 NNE 19 28 10 15 1012.1 1012.0 0.0
22/01:30pm 32.4 31.0 17.1 40 9.7 NE 20 32 11 17 1012.5 1012.4 0.0
22/01:00pm 32.0 30.4 17.5 42 9.3 NNE 22 32 12 17 1013.0 1012.9 0.0
22/12:30pm 33.4 31.8 18.3 40 9.8 NNE 24 35 13 19 1013.4 1013.3 0.0
22/12:00pm 31.8 29.8 18.4 45 8.7 NNE 26 39 14 21 1013.9 1013.8 0.0
22/11:30am 33.2 31.6 20.0 45 8.8 NE 28 39 15 21 1014.2 1014.1 0.0
22/11:00am 32.0 30.1 19.3 47 8.3 NNE 28 39 15 21 1014.6 1014.5 0.0
22/10:30am 30.4 27.8 19.4 51 7.2 NNE 32 44 17 24 1014.8 1014.7 0.0
22/10:00am 31.4 28.3 19.7 49 7.7 NNE 35 46 19 25 1014.7 1014.6 0.0
22/09:30am 30.7 27.1 19.4 51 7.4 NNE 37 46 20 25 1014.7 1014.6 0.0
22/09:00am 30.2 27.4 21.0 58 6.1 NNE 37 52 20 28 1014.4 1014.3 0.0
22/08:43am 28.8 25.6 21.1 63 5.1 NNE 39 57 21 31 1014.1 1014.0 0.0
22/08:30am 28.3 25.1 21.1 65 4.8 NNE 39 54 21 29 1013.9 1013.8 0.0
22/08:06am 29.2 27.8 21.2 62 5.3 NNE 30 48 16 26 1013.5 1013.4 0.0
22/08:00am 28.3 27.4 17.8 53 6.7 NNE 19 28 10 15 1013.6 1013.5 0.0
22/07:30am 25.0 22.3 7.2 32 9.3 NE 11 17 6 9 1013.2 1013.1 0.0
22/07:00am 21.4 19.9 3.1 30 8.7 CALM 0 0 0 0 1012.6 1012.5 0.0
22/06:30am 18.4 16.6 1.0 31 7.7 CALM 0 0 0 0 1012.1 1012.0 0.0
22/06:00am 19.2 15.6 -1.8 24 8.9 E 7 9 4 5 1012.0 1011.9 0.0
22/05:30am 20.0 15.5 -3.0 21 9.6 NE 11 17 6 9 1011.8 1011.7 0.0
22/05:00am 20.8 16.1 -5.1 17 10.4 ESE 11 13 6 7 1011.1 1011.0 0.0
22/04:30am 21.0 15.9 -4.9 17 10.5 SSE 13 17 7 9 1010.6 1010.5 0.0
22/04:00am 21.3 17.0 -4.7 17 10.6 SSE 9 11 5 6 1010.4 1010.3 0.0
22/03:30am 22.8 17.7 -5.2 15 11.4 S 13 15 7 8 1010.2 1010.1 0.0
22/03:00am 22.0 16.8 -2.7 19 10.5 SSW 15 17 8 9 1010.1 1010.0 0.0
22/02:30am 21.8 17.5 0.9 25 9.5 S 13 15 7 8 1010.5 1010.4 0.0
22/02:00am 20.8 17.0 4.0 33 8.1 SSW 13 15 7 8 1011.0 1010.9 0.0
22/01:30am 19.7 15.8 5.4 39 7.0 SW 15 15 8 8 1011.3 1011.2 0.0
22/01:00am 20.6 16.7 5.4 37 7.5 WSW 15 17 8 9 1011.7 1011.6 0.0
22/12:30am 20.6 16.9 6.5 40 7.1 WSW 15 17 8 9 1011.9 1011.8 0.0
22/12:00am 20.4 17.2 6.7 41 6.9 WSW 13 15 7 8 1012.1 1012.0 0.0
 
Date/Time
EST
Temp
°C
App
Temp
°C
Dew
Point
°C
Rel
Hum
%
Delta-T
°C
Wind Press
QNH
hPa
Press
MSL
hPa
Rain since
9am
mm
Dir  Spd
km/h
Gust
km/h
Spd
kts
Gust
kts
21/11:30pm 20.7 17.8 6.3 39 7.2 WSW 11 13 6 7 1012.2 1012.1 0.0
21/11:00pm 20.9 18.2 7.5 42 6.9 WSW 11 13 6 7 1012.3 1012.2 0.0
21/10:30pm 22.4 19.6 7.0 37 7.9 WSW 11 13 6 7 1012.4 1012.3 0.0
21/10:00pm 22.8 19.9 6.6 35 8.3 WSW 11 15 6 8 1012.3 1012.2 0.0
21/09:30pm 23.0 19.2 4.0 29 9.3 W 13 15 7 8 1012.1 1012.0 0.0
21/09:00pm 23.6 19.8 4.0 28 9.6 W 13 15 7 8 1012.0 1011.9 0.0
21/08:30pm 24.9 21.2 4.6 27 10.2 WNW 13 13 7 7 1011.9 1011.8 0.0
21/08:00pm 26.2 23.6 6.3 28 10.4 NW 9 9 5 5 1011.7 1011.6 0.0
21/07:30pm 28.5 25.2 6.6 25 11.6 NNW 13 17 7 9 1011.3 1011.2 0.0
21/07:00pm 28.9 24.9 3.0 19 12.9 N 13 15 7 8 1011.1 1011.0 0.0
21/06:30pm 31.5 27.2 0.8 14 15.0 N 13 17 7 9 1010.7 1010.6 0.0
21/06:00pm 33.4 28.0 1.3 13 16.0 N 19 22 10 12 1010.3 1010.2 0.0
21/05:30pm 34.6 28.8 -0.1 11 17.1 N 20 26 11 14 1010.0 1009.9 0.0
21/05:00pm 35.6 29.0 -0.7 10 17.8 NNE 24 32 13 17 1009.6 1009.5 0.0
21/04:30pm 36.7 30.7 -2.9 8 18.9 N 19 26 10 14 1009.5 1009.4 0.0
21/04:00pm 37.7 31.1 -14.7 3 21.0 SE 17 30 9 16 1009.6 1009.5 0.0
21/03:30pm 38.6 31.7 -14.1 3 21.4 SSE 19 33 10 18 1009.8 1009.7 0.0
21/03:00pm 37.8 30.8 -14.6 3 21.0 ESE 19 33 10 18 1010.2 1010.1 0.0
21/02:30pm 37.6 30.1 -14.7 3 20.9 SE 22 33 12 18 1010.6 1010.5 0.0
21/02:00pm 37.5 30.3 -14.8 3 20.8 ESE 20 32 11 17 1011.0 1010.9 0.0
21/01:30pm 36.7 28.8 -15.3 3 20.4 SE 24 35 13 19 1011.6 1011.5 0.0
21/01:00pm 37.0 29.3 -11.6 4 20.2 ESE 24 37 13 20 1012.2 1012.1 0.0
21/12:39pm 36.9 28.4 -11.7 4 20.2 ESE 28 46 15 25 1012.6 1012.5 0.0
21/12:30pm 36.8 28.7 -11.8 4 20.1 SE 26 37 14 20 1012.9 1012.8 0.0
21/12:00pm 35.6 26.5 -9.8 5 19.2 SE 32 43 17 23 1013.6 1013.5 0.0
21/11:30am 35.7 27.2 -7.4 6 19.0 SE 30 43 16 23 1014.1 1014.0 0.0
21/11:00am 35.1 26.0 -7.8 6 18.7 SE 33 48 18 26 1014.4 1014.3 0.0
21/10:30am 34.3 25.7 -8.4 6 18.3 SE 30 43 16 23 1014.8 1014.7 0.0
21/10:00am 32.9 24.4 -7.4 7 17.3 SE 30 39 16 21 1015.3 1015.2 0.0
21/09:30am 31.2 21.6 -8.6 7 16.5 SE 35 50 19 27 1015.3 1015.2 0.0
21/09:00am 29.7 20.5 -8.0 8 15.6 SE 33 46 18 25 1015.4 1015.3 0.0
21/08:30am 28.1 18.5 -9.2 8 14.9 SE 35 46 19 25 1015.4 1015.3 0.0
21/08:00am 27.1 18.1 -8.5 9 14.2 SSE 32 46 17 25 1015.3 1015.2 0.0
21/07:30am 26.0 17.7 -9.3 9 13.8 SSE 28 39 15 21 1015.2 1015.1 0.0
21/07:00am 24.9 17.8 -8.8 10 13.1 SSE 22 28 12 15 1015.0 1014.9 0.0
21/06:30am 23.0 16.5 -7.9 12 12.0 SSE 19 24 10 13 1014.7 1014.6 0.0
21/06:00am 22.7 16.2 -8.1 12 11.9 SSE 19 22 10 12 1014.2 1014.1 0.0
21/05:30am 23.0 16.6 -6.9 13 11.8 SSE 19 22 10 12 1013.7 1013.6 0.0
21/05:00am 23.2 16.8 -6.7 13 11.9 SSE 19 24 10 13 1013.3 1013.2 0.0
21/04:30am 23.5 17.1 -6.5 13 12.0 SSE 19 24 10 13 1013.0 1012.9 0.0
21/04:00am 24.2 17.9 -5.9 13 12.3 SSE 19 20 10 11 1012.9 1012.8 0.0
21/03:30am 24.5 18.2 -5.7 13 12.4 SSE 19 24 10 13 1012.8 1012.7 0.0
21/03:00am 24.5 18.6 -5.7 13 12.4 SSE 17 20 9 11 1012.9 1012.8 0.0
21/02:30am 25.5 19.6 -6.0 12 13.0 S 17 20 9 11 1013.0 1012.9 0.0
21/02:00am 27.4 21.0 -6.9 10 14.2 SSE 19 26 10 14 1013.2 1013.1 0.0
21/01:30am 28.3 21.6 -7.6 9 14.8 SSE 20 28 11 15 1013.4 1013.3 0.0
21/01:00am 26.9 21.0 -6.0 11 13.8 SSE 17 20 9 11 1013.5 1013.4 0.0
21/12:30am 26.3 20.4 -5.3 12 13.3 SSE 17 20 9 11 1013.5 1013.4 0.0
21/12:00am 26.2 20.7 -5.4 12 13.3 SSE 15 19 8 10 1013.7 1013.6 0.0
 
Date/Time
EST
Temp
°C
App
Temp
°C
Dew
Point
°C
Rel
Hum
%
Delta-T
°C
Wind Press
QNH
hPa
Press
MSL
hPa
Rain since
9am
mm
Dir  Spd
km/h
Gust
km/h
Spd
kts
Gust
kts
20/11:30pm 26.4 20.9 -5.3 12 13.4 SSE 15 19 8 10 1013.8 1013.7 0.0
20/11:00pm 26.0 21.0 -4.5 13 13.0 SSE 13 15 7 8 1013.8 1013.7 0.0
20/10:30pm 26.6 21.5 -5.1 12 13.4 SSE 13 15 7 8 1013.8 1013.7 0.0
20/10:00pm 27.3 22.3 -4.6 12 13.7 SSE 13 15 7 8 1013.6 1013.5 0.0
20/09:30pm 27.8 23.1 -5.3 11 14.1 SSE 11 13 6 7 1013.4 1013.3 0.0
20/09:00pm 28.8 23.6 -5.8 10 14.8 SSE 13 13 7 7 1013.0 1012.9 0.0
20/08:30pm 30.5 25.3 -5.9 9 15.7 SSE 13 15 7 8 1012.7 1012.6 0.0
20/08:00pm 33.2 27.1 -7.2 7 17.5 SSE 17 22 9 12 1012.4 1012.3 0.0
20/07:30pm 34.6 27.7 -6.2 7 18.2 SSE 22 28 12 15 1012.1 1012.0 0.0
20/07:00pm 35.5 28.3 -5.5 7 18.6 SSE 24 32 13 17 1011.8 1011.7 0.0
20/06:30pm 36.5 28.8 -6.8 6 19.4 SSE 26 33 14 18 1011.2 1011.1 0.0
20/06:00pm 37.5 29.5 -6.1 6 19.9 SSE 28 35 15 19 1010.9 1010.8 0.0
20/05:30pm 38.2 30.0 -8.0 5 20.5 SSE 28 35 15 19 1010.9 1010.8 0.0
20/05:00pm 38.9 31.0 -5.1 6 20.6 SE 28 41 15 22 1010.8 1010.7 0.0
20/04:30pm 38.9 29.8 -7.5 5 20.9 SSE 33 46 18 25 1010.9 1010.8 0.0
20/04:14pm 38.9 29.6 -5.1 6 20.6 SSE 35 48 19 26 1011.0 1010.9 0.0
20/04:00pm 39.2 30.3 -4.9 6 20.7 SSE 33 50 18 27 1011.1 1011.0 0.0
20/03:46pm 39.7 31.6 -6.9 5 21.3 SSE 28 46 15 25 1011.1 1011.0 0.0
20/03:30pm 39.6 31.5 -7.0 5 21.3 SSE 28 41 15 22 1011.4 1011.3 0.0
20/03:18pm 40.0 31.9 -6.7 5 21.5 SSE 28 61 15 33 1011.3 1011.2 0.0
20/03:00pm 39.0 29.9 -7.4 5 21.0 SSE 33 46 18 25 1011.9 1011.8 0.0
20/02:35pm 39.2 30.3 -7.3 5 21.1 SE 32 46 17 25 1012.0 1011.9 0.0
20/02:30pm 39.5 30.6 -7.1 5 21.2 SSE 32 46 17 25 1012.1 1012.0 0.0
20/02:00pm 39.0 31.2 -7.4 5 21.0 SE 26 41 14 22 1012.5 1012.4 0.0
20/01:35pm 39.9 31.8 -6.8 5 21.4 SE 28 46 15 25 1012.7 1012.6 0.0
20/01:30pm 39.1 31.3 -7.4 5 21.0 SE 26 37 14 20 1012.8 1012.7 0.0
20/01:00pm 39.1 30.9 -7.4 5 21.0 SE 28 46 15 25 1013.5 1013.4 0.0
20/12:56pm 39.8 31.7 -6.9 5 21.4 SE 28 46 15 25 1013.6 1013.5 0.0
20/12:30pm 39.3 30.5 -10.1 4 21.5 SE 30 39 16 21 1014.1 1014.0 0.0
20/12:00pm 38.0 29.6 -10.9 4 20.7 SE 28 43 15 23 1014.7 1014.6 0.0
20/11:30am 38.5 29.3 -10.6 4 21.0 ESE 32 48 17 26 1015.2 1015.1 0.0
20/11:00am 37.2 28.0 -11.5 4 20.3 ESE 32 46 17 25 1015.7 1015.6 0.0
20/10:30am 36.7 26.5 -11.8 4 20.1 ESE 37 52 20 28 1016.0 1015.9 0.0
20/10:00am 35.9 26.6 -9.6 5 19.3 ESE 33 48 18 26 1016.2 1016.1 0.0
20/09:30am 34.4 25.4 -8.3 6 18.3 ESE 32 48 17 26 1016.6 1016.5 0.0
20/09:00am 32.0 22.4 -8.1 7 16.9 SE 35 50 19 27 1016.9 1016.8 0.0
20/08:30am 31.1 22.6 -7.0 8 16.3 SE 30 46 16 25 1016.7 1016.6 0.0
20/08:00am 29.1 21.5 -5.6 10 14.9 SE 26 35 14 19 1016.5 1016.4 0.0
20/07:30am 27.2 20.5 -4.6 12 13.7 SE 22 30 12 16 1016.0 1015.9 0.0

Other formats

Comma delimited format used in spreadsheet applications
http://www.bom.gov.au/fwo/IDQ60801/IDQ60801.94260.axf

JavaScript Object Notation format (JSON) in row-major order
http://www.bom.gov.au/fwo/IDQ60801/IDQ60801.94260.json

Data quality

Most of these data are generated automatically and are frequently updated. Quality checks on data are not normally performed. It is possible for incorrect values to appear. Refer to information at About Latest Weather Observations and please check the disclaimer before using these data.